createdAt,value
2016-10-05T00:00:16.978Z,1011.42
2016-10-05T00:00:57.717Z,1011.44
2016-10-05T00:01:38.432Z,1011.41
2016-10-05T00:02:19.147Z,1011.44
2016-10-05T00:02:59.813Z,1011.42
2016-10-05T00:03:40.509Z,1011.44
2016-10-05T00:04:21.193Z,1011.44
2016-10-05T00:05:01.873Z,1011.43
2016-10-05T00:05:42.627Z,1011.44
2016-10-05T00:06:23.331Z,1011.45
2016-10-05T00:07:04.021Z,1011.47
2016-10-05T00:07:44.743Z,1011.47
2016-10-05T00:08:25.407Z,1011.48
2016-10-05T00:09:06.117Z,1011.49
2016-10-05T00:09:46.800Z,1011.5
2016-10-05T00:10:27.518Z,1011.54
2016-10-05T00:11:08.214Z,1011.55
2016-10-05T00:11:48.879Z,1011.53
2016-10-05T00:12:29.593Z,1011.55
2016-10-05T00:13:10.233Z,1011.54
2016-10-05T00:13:50.908Z,1011.54
2016-10-05T00:14:31.594Z,1011.59
2016-10-05T00:15:12.265Z,1011.57
2016-10-05T00:15:52.928Z,1011.55
2016-10-05T00:16:33.583Z,1011.58
2016-10-05T00:17:14.289Z,1011.59
2016-10-05T00:17:54.985Z,1011.57
2016-10-05T00:18:35.670Z,1011.57
2016-10-05T00:19:16.336Z,1011.59
2016-10-05T00:19:57.078Z,1011.57
2016-10-05T00:20:37.800Z,1011.56
2016-10-05T00:21:18.462Z,1011.55
2016-10-05T00:21:59.166Z,1011.57
2016-10-05T00:22:39.898Z,1011.6
2016-10-05T00:23:20.600Z,1011.56
2016-10-05T00:24:01.317Z,1011.55
2016-10-05T00:24:42.066Z,1011.52
2016-10-05T00:25:22.754Z,1011.57
2016-10-05T00:26:03.436Z,1011.53
2016-10-05T00:26:44.161Z,1011.54
2016-10-05T00:27:24.873Z,1011.51
2016-10-05T00:28:05.569Z,1011.53
2016-10-05T00:28:46.252Z,1011.57
2016-10-05T00:29:26.922Z,1011.59
2016-10-05T00:30:07.660Z,1011.58
2016-10-05T00:30:48.322Z,1011.55
2016-10-05T00:31:29.033Z,1011.57
2016-10-05T00:32:09.749Z,1011.59
2016-10-05T00:32:50.429Z,1011.55
2016-10-05T00:33:31.077Z,1011.6
2016-10-05T00:34:11.830Z,1011.6
2016-10-05T00:34:52.546Z,1011.6
2016-10-05T00:35:33.192Z,1011.62
2016-10-05T00:36:13.878Z,1011.62
2016-10-05T00:36:54.599Z,1011.62
2016-10-05T00:37:35.243Z,1011.65
2016-10-05T00:38:15.952Z,1011.66
2016-10-05T00:38:56.610Z,1011.66
2016-10-05T00:39:37.347Z,1011.68
2016-10-05T00:40:18.037Z,1011.66
2016-10-05T00:40:58.698Z,1011.66
2016-10-05T00:41:39.413Z,1011.67
2016-10-05T00:42:20.096Z,1011.64
2016-10-05T00:43:00.768Z,1011.68
2016-10-05T00:43:41.443Z,1011.66
2016-10-05T00:44:22.123Z,1011.69
2016-10-05T00:45:02.824Z,1011.68
2016-10-05T00:45:43.528Z,1011.69
2016-10-05T00:46:24.224Z,1011.67
2016-10-05T00:47:04.861Z,1011.68
2016-10-05T00:47:45.528Z,1011.66
2016-10-05T00:48:26.252Z,1011.66
2016-10-05T00:49:06.965Z,1011.68
2016-10-05T00:49:47.646Z,1011.64
2016-10-05T00:50:28.347Z,1011.6
2016-10-05T00:51:08.990Z,1011.65
2016-10-05T00:51:49.683Z,1011.66
2016-10-05T00:52:30.372Z,1011.62
2016-10-05T00:53:11.051Z,1011.63
2016-10-05T00:53:51.726Z,1011.62
2016-10-05T00:54:32.433Z,1011.64
2016-10-05T00:55:13.128Z,1011.65
2016-10-05T00:55:53.807Z,1011.62
2016-10-05T00:56:34.460Z,1011.65
2016-10-05T00:57:15.176Z,1011.63
2016-10-05T00:57:55.880Z,1011.64
2016-10-05T00:58:36.607Z,1011.64
2016-10-05T00:59:17.312Z,1011.61
2016-10-05T00:59:57.941Z,1011.58
2016-10-05T01:00:38.611Z,1011.63
2016-10-05T01:01:19.298Z,1011.61
2016-10-05T01:02:00.005Z,1011.59
2016-10-05T01:02:40.701Z,1011.61
2016-10-05T01:03:21.385Z,1011.63
2016-10-05T01:04:02.114Z,1011.62
2016-10-05T01:04:42.783Z,1011.6
2016-10-05T01:05:23.476Z,1011.63
2016-10-05T01:06:04.152Z,1011.6
2016-10-05T01:06:44.857Z,1011.6
2016-10-05T01:07:25.559Z,1011.6
2016-10-05T01:08:06.253Z,1011.61
2016-10-05T01:08:46.965Z,1011.61
2016-10-05T01:09:27.657Z,1011.62
2016-10-05T01:10:08.357Z,1011.62
2016-10-05T01:10:49.080Z,1011.64
2016-10-05T01:11:29.774Z,1011.62
2016-10-05T01:12:10.449Z,1011.67
2016-10-05T01:12:51.128Z,1011.65
2016-10-05T01:13:31.872Z,1011.66
2016-10-05T01:14:12.518Z,1011.65
2016-10-05T01:14:53.192Z,1011.66
2016-10-05T01:15:33.850Z,1011.64
2016-10-05T01:16:14.570Z,1011.65
2016-10-05T01:16:55.267Z,1011.64
2016-10-05T01:17:35.940Z,1011.64
2016-10-05T01:18:16.618Z,1011.67
2016-10-05T01:18:57.308Z,1011.67
2016-10-05T01:19:37.989Z,1011.6
2016-10-05T01:20:18.707Z,1011.65
2016-10-05T01:20:59.375Z,1011.67
2016-10-05T01:21:40.073Z,1011.66
2016-10-05T01:22:20.776Z,1011.63
2016-10-05T01:23:01.445Z,1011.62
2016-10-05T01:23:42.140Z,1011.66
2016-10-05T01:24:22.888Z,1011.65
2016-10-05T01:25:03.571Z,1011.65
2016-10-05T01:25:44.304Z,1011.61
2016-10-05T01:26:25.019Z,1011.64
2016-10-05T01:27:05.698Z,1011.62
2016-10-05T01:27:46.372Z,1011.62
2016-10-05T01:28:27.066Z,1011.64
2016-10-05T01:29:07.739Z,1011.66
2016-10-05T01:29:48.412Z,1011.6
2016-10-05T01:30:29.093Z,1011.62
2016-10-05T01:31:09.832Z,1011.62
2016-10-05T01:31:50.522Z,1011.63
2016-10-05T01:32:31.208Z,1011.62
2016-10-05T01:33:11.916Z,1011.61
2016-10-05T01:33:52.572Z,1011.62
2016-10-05T01:34:33.243Z,1011.61
2016-10-05T01:35:13.911Z,1011.63
2016-10-05T01:35:54.612Z,1011.6
2016-10-05T01:36:35.290Z,1011.63
2016-10-05T01:37:15.971Z,1011.59
2016-10-05T01:37:56.637Z,1011.58
2016-10-05T01:38:37.325Z,1011.58
2016-10-05T01:39:18.014Z,1011.59
2016-10-05T01:39:58.722Z,1011.59
2016-10-05T01:40:39.440Z,1011.59
2016-10-05T01:41:20.149Z,1011.56
2016-10-05T01:42:00.816Z,1011.6
2016-10-05T01:42:41.484Z,1011.59
2016-10-05T01:43:22.189Z,1011.57
2016-10-05T01:44:02.897Z,1011.57
2016-10-05T01:44:43.614Z,1011.59
2016-10-05T01:45:24.321Z,1011.56
2016-10-05T01:46:04.988Z,1011.57
2016-10-05T01:46:45.657Z,1011.59
2016-10-05T01:47:26.312Z,1011.54
2016-10-05T01:48:07.009Z,1011.58
2016-10-05T01:48:47.683Z,1011.6
2016-10-05T01:49:28.375Z,1011.6
2016-10-05T01:50:09.053Z,1011.6
2016-10-05T01:50:49.759Z,1011.6
2016-10-05T01:51:30.484Z,1011.59
2016-10-05T01:52:11.142Z,1011.59
2016-10-05T01:52:51.831Z,1011.58
2016-10-05T01:53:32.493Z,1011.62
2016-10-05T01:54:13.209Z,1011.56
2016-10-05T01:54:53.918Z,1011.6
2016-10-05T01:55:34.631Z,1011.57
2016-10-05T01:56:15.283Z,1011.61
2016-10-05T01:56:55.992Z,1011.58
2016-10-05T01:57:36.692Z,1011.59
2016-10-05T01:58:17.382Z,1011.57
2016-10-05T01:58:58.090Z,1011.58
2016-10-05T01:59:38.753Z,1011.6
2016-10-05T02:00:19.539Z,1011.58
2016-10-05T02:01:00.698Z,1011.64
2016-10-05T02:01:41.441Z,1011.6
2016-10-05T02:02:22.168Z,1011.62
2016-10-05T02:03:02.856Z,1011.64
2016-10-05T02:03:43.521Z,1011.65
2016-10-05T02:04:24.197Z,1011.63
2016-10-05T02:05:04.876Z,1011.67
2016-10-05T02:05:45.577Z,1011.62
2016-10-05T02:06:26.253Z,1011.61
2016-10-05T02:07:06.927Z,1011.61
2016-10-05T02:07:47.572Z,1011.6
2016-10-05T02:08:28.242Z,1011.62
2016-10-05T02:09:08.910Z,1011.61
2016-10-05T02:09:49.586Z,1011.64
2016-10-05T02:10:30.319Z,1011.6
2016-10-05T02:11:11.029Z,1011.62
2016-10-05T02:11:51.684Z,1011.59
2016-10-05T02:12:32.341Z,1011.6
2016-10-05T02:13:13.052Z,1011.62
2016-10-05T02:13:53.723Z,1011.64
2016-10-05T02:14:34.393Z,1011.62
2016-10-05T02:15:15.077Z,1011.65
2016-10-05T02:15:55.763Z,1011.65
2016-10-05T02:16:36.420Z,1011.67
2016-10-05T02:17:17.102Z,1011.65
2016-10-05T02:17:57.744Z,1011.62
2016-10-05T02:18:38.409Z,1011.64
2016-10-05T02:19:19.122Z,1011.63
2016-10-05T02:19:59.794Z,1011.63
2016-10-05T02:20:40.498Z,1011.62
2016-10-05T02:21:21.162Z,1011.65
2016-10-05T02:22:01.819Z,1011.58
2016-10-05T02:22:42.512Z,1011.59
2016-10-05T02:23:23.162Z,1011.58
2016-10-05T02:24:03.893Z,1011.59
2016-10-05T02:24:44.609Z,1011.56
2016-10-05T02:25:25.273Z,1011.61
2016-10-05T02:26:06.010Z,1011.58
2016-10-05T02:26:46.721Z,1011.59
2016-10-05T02:27:27.437Z,1011.56
2016-10-05T02:28:08.134Z,1011.54
2016-10-05T02:28:48.847Z,1011.53
2016-10-05T02:29:29.504Z,1011.52
2016-10-05T02:30:10.189Z,1011.55
2016-10-05T02:30:50.810Z,1011.53
2016-10-05T02:31:31.490Z,1011.56
2016-10-05T02:32:12.209Z,1011.54
2016-10-05T02:32:52.893Z,1011.57
2016-10-05T02:33:33.505Z,1011.51
2016-10-05T02:34:14.197Z,1011.54
2016-10-05T02:34:54.885Z,1011.5
2016-10-05T02:35:35.561Z,1011.5
2016-10-05T02:36:16.302Z,1011.5
2016-10-05T02:36:57.008Z,1011.51
2016-10-05T02:37:37.659Z,1011.52
2016-10-05T02:38:18.381Z,1011.48
2016-10-05T02:38:59.057Z,1011.46
2016-10-05T02:39:39.755Z,1011.45
2016-10-05T02:40:20.417Z,1011.44
2016-10-05T02:41:01.118Z,1011.46
2016-10-05T02:41:41.836Z,1011.47
2016-10-05T02:42:22.513Z,1011.44
2016-10-05T02:43:03.164Z,1011.44
2016-10-05T02:43:43.827Z,1011.44
2016-10-05T02:44:24.558Z,1011.42
2016-10-05T02:45:05.248Z,1011.45
2016-10-05T02:45:45.897Z,1011.43
2016-10-05T02:46:26.587Z,1011.41
2016-10-05T02:47:07.311Z,1011.42
2016-10-05T02:47:47.984Z,1011.43
2016-10-05T02:48:28.686Z,1011.45
2016-10-05T02:49:09.398Z,1011.43
2016-10-05T02:49:50.036Z,1011.46
2016-10-05T02:50:30.724Z,1011.44
2016-10-05T02:51:11.406Z,1011.46
2016-10-05T02:51:52.053Z,1011.41
2016-10-05T02:52:32.744Z,1011.42
2016-10-05T02:53:13.411Z,1011.41
2016-10-05T02:53:54.086Z,1011.42
2016-10-05T02:54:34.815Z,1011.41
2016-10-05T02:55:15.513Z,1011.41
2016-10-05T02:55:56.211Z,1011.42
2016-10-05T02:56:36.891Z,1011.42
2016-10-05T02:57:17.621Z,1011.43
2016-10-05T02:57:58.325Z,1011.42
2016-10-05T02:58:38.968Z,1011.39
2016-10-05T02:59:19.676Z,1011.4
2016-10-05T03:00:00.366Z,1011.34
2016-10-05T03:00:41.100Z,1011.4
2016-10-05T03:01:21.830Z,1011.4
2016-10-05T03:02:02.525Z,1011.33
2016-10-05T03:02:43.229Z,1011.36
2016-10-05T03:03:23.909Z,1011.31
2016-10-05T03:04:04.615Z,1011.36
2016-10-05T03:04:45.277Z,1011.35
2016-10-05T03:05:25.940Z,1011.34
2016-10-05T03:06:06.646Z,1011.32
2016-10-05T03:06:47.320Z,1011.32
2016-10-05T03:07:28.022Z,1011.32
2016-10-05T03:08:08.702Z,1011.32
2016-10-05T03:08:49.371Z,1011.34
2016-10-05T03:09:30.041Z,1011.33
2016-10-05T03:10:10.674Z,1011.33
2016-10-05T03:10:51.367Z,1011.35
2016-10-05T03:11:32.023Z,1011.32
2016-10-05T03:12:12.695Z,1011.35
2016-10-05T03:12:53.383Z,1011.31
2016-10-05T03:13:34.053Z,1011.32
2016-10-05T03:14:14.748Z,1011.36
2016-10-05T03:14:55.442Z,1011.33
2016-10-05T03:15:36.116Z,1011.37
2016-10-05T03:16:16.789Z,1011.37
2016-10-05T03:16:57.505Z,1011.34
2016-10-05T03:17:38.203Z,1011.36
2016-10-05T03:18:18.853Z,1011.33
2016-10-05T03:18:59.542Z,1011.35
2016-10-05T03:19:40.241Z,1011.36
2016-10-05T03:20:20.899Z,1011.38
2016-10-05T03:21:01.567Z,1011.34
2016-10-05T03:21:42.274Z,1011.37
2016-10-05T03:22:22.957Z,1011.38
2016-10-05T03:23:03.638Z,1011.33
2016-10-05T03:23:44.330Z,1011.35
2016-10-05T03:24:25.031Z,1011.33
2016-10-05T03:25:05.721Z,1011.33
2016-10-05T03:25:46.371Z,1011.31
2016-10-05T03:26:27.097Z,1011.31
2016-10-05T03:27:07.791Z,1011.34
2016-10-05T03:27:48.476Z,1011.29
2016-10-05T03:28:29.152Z,1011.33
2016-10-05T03:29:09.823Z,1011.32
2016-10-05T03:29:50.524Z,1011.31
2016-10-05T03:30:31.199Z,1011.35
2016-10-05T03:31:11.917Z,1011.34
2016-10-05T03:31:52.591Z,1011.34
2016-10-05T03:32:33.273Z,1011.35
2016-10-05T03:33:13.952Z,1011.34
2016-10-05T03:33:54.663Z,1011.33
2016-10-05T03:34:35.355Z,1011.33
2016-10-05T03:35:16.009Z,1011.34
2016-10-05T03:35:56.737Z,1011.3
2016-10-05T03:36:37.398Z,1011.29
2016-10-05T03:37:18.086Z,1011.34
2016-10-05T03:37:58.836Z,1011.32
2016-10-05T03:38:39.467Z,1011.31
2016-10-05T03:39:20.139Z,1011.29
2016-10-05T03:40:00.834Z,1011.28
2016-10-05T03:40:41.531Z,1011.29
2016-10-05T03:41:22.220Z,1011.32
2016-10-05T03:42:02.893Z,1011.29
2016-10-05T03:42:43.568Z,1011.32
2016-10-05T03:43:24.289Z,1011.33
2016-10-05T03:44:05.011Z,1011.26
2016-10-05T03:44:45.710Z,1011.3
2016-10-05T03:45:26.430Z,1011.3
2016-10-05T03:46:07.107Z,1011.3
2016-10-05T03:46:47.836Z,1011.3
2016-10-05T03:47:28.541Z,1011.31
2016-10-05T03:48:09.254Z,1011.32
2016-10-05T03:48:49.936Z,1011.33
2016-10-05T03:49:30.653Z,1011.33
2016-10-05T03:50:11.338Z,1011.29
2016-10-05T03:50:52.073Z,1011.31
2016-10-05T03:51:32.748Z,1011.31
2016-10-05T03:52:13.384Z,1011.33
2016-10-05T03:52:54.066Z,1011.33
2016-10-05T03:53:34.754Z,1011.3
2016-10-05T03:54:15.427Z,1011.3
2016-10-05T03:54:56.150Z,1011.29
2016-10-05T03:55:36.785Z,1011.31
2016-10-05T03:56:17.493Z,1011.33
2016-10-05T03:56:58.209Z,1011.31
2016-10-05T03:57:38.877Z,1011.31
2016-10-05T03:58:19.555Z,1011.31
2016-10-05T03:59:00.225Z,1011.33
2016-10-05T03:59:40.883Z,1011.28
2016-10-05T04:00:21.655Z,1011.32
2016-10-05T04:01:02.313Z,1011.3
2016-10-05T04:01:42.992Z,1011.32
2016-10-05T04:02:23.690Z,1011.31
2016-10-05T04:03:04.341Z,1011.34
2016-10-05T04:03:45.013Z,1011.28
2016-10-05T04:04:25.712Z,1011.33
2016-10-05T04:05:06.434Z,1011.37
2016-10-05T04:05:47.171Z,1011.36
2016-10-05T04:06:27.868Z,1011.36
2016-10-05T04:07:08.566Z,1011.4
2016-10-05T04:07:49.223Z,1011.35
2016-10-05T04:08:29.907Z,1011.37
2016-10-05T04:09:10.624Z,1011.38
2016-10-05T04:09:51.264Z,1011.4
2016-10-05T04:10:31.948Z,1011.39
2016-10-05T04:11:12.639Z,1011.39
2016-10-05T04:11:53.306Z,1011.36
2016-10-05T04:12:34.006Z,1011.37
2016-10-05T04:13:14.654Z,1011.39
2016-10-05T04:13:55.382Z,1011.36
2016-10-05T04:14:36.035Z,1011.37
2016-10-05T04:15:16.713Z,1011.39
2016-10-05T04:15:57.403Z,1011.37
2016-10-05T04:16:38.038Z,1011.37
2016-10-05T04:17:18.751Z,1011.38
2016-10-05T04:17:59.473Z,1011.39
2016-10-05T04:18:40.158Z,1011.4
2016-10-05T04:19:20.865Z,1011.37
2016-10-05T04:20:01.528Z,1011.4
2016-10-05T04:20:42.153Z,1011.37
2016-10-05T04:21:22.825Z,1011.41
2016-10-05T04:22:03.523Z,1011.38
2016-10-05T04:22:44.195Z,1011.39
2016-10-05T04:23:24.900Z,1011.4
2016-10-05T04:24:05.546Z,1011.38
2016-10-05T04:24:46.262Z,1011.42
2016-10-05T04:25:26.936Z,1011.4
2016-10-05T04:26:07.612Z,1011.39
2016-10-05T04:26:48.315Z,1011.37
2016-10-05T04:27:28.985Z,1011.39
2016-10-05T04:28:09.647Z,1011.36
2016-10-05T04:28:50.358Z,1011.38
2016-10-05T04:29:31.025Z,1011.4
2016-10-05T04:30:11.693Z,1011.39
2016-10-05T04:30:52.363Z,1011.4
2016-10-05T04:31:33.071Z,1011.35
2016-10-05T04:32:13.742Z,1011.41
2016-10-05T04:32:54.477Z,1011.39
2016-10-05T04:33:35.109Z,1011.39
2016-10-05T04:34:15.868Z,1011.38
2016-10-05T04:34:56.590Z,1011.4
2016-10-05T04:35:37.317Z,1011.43
2016-10-05T04:36:18.002Z,1011.4
2016-10-05T04:36:58.682Z,1011.42
2016-10-05T04:37:39.383Z,1011.41
2016-10-05T04:38:20.057Z,1011.45
2016-10-05T04:39:00.732Z,1011.43
2016-10-05T04:39:41.430Z,1011.44
2016-10-05T04:40:22.143Z,1011.44
2016-10-05T04:41:02.801Z,1011.46
2016-10-05T04:41:43.511Z,1011.5
2016-10-05T04:42:24.142Z,1011.49
2016-10-05T04:43:04.802Z,1011.5
2016-10-05T04:43:45.520Z,1011.53
2016-10-05T04:44:26.174Z,1011.51
2016-10-05T04:45:06.852Z,1011.53
2016-10-05T04:45:47.493Z,1011.53
2016-10-05T04:46:28.169Z,1011.5
2016-10-05T04:47:08.898Z,1011.51
2016-10-05T04:47:49.585Z,1011.54
2016-10-05T04:48:30.306Z,1011.52
2016-10-05T04:49:10.978Z,1011.48
2016-10-05T04:49:51.660Z,1011.47
2016-10-05T04:50:32.357Z,1011.48
2016-10-05T04:51:13.028Z,1011.46
2016-10-05T04:51:53.708Z,1011.49
2016-10-05T04:52:34.360Z,1011.45
2016-10-05T04:53:15.052Z,1011.45
2016-10-05T04:53:55.689Z,1011.49
2016-10-05T04:54:36.376Z,1011.44
2016-10-05T04:55:17.065Z,1011.48
2016-10-05T04:55:57.713Z,1011.48
2016-10-05T04:56:38.382Z,1011.47
2016-10-05T04:57:19.061Z,1011.46
2016-10-05T04:57:59.804Z,1011.48
2016-10-05T04:58:40.494Z,1011.47
2016-10-05T04:59:21.197Z,1011.48
2016-10-05T05:00:01.901Z,1011.46
2016-10-05T05:00:42.622Z,1011.5
2016-10-05T05:01:23.340Z,1011.48
2016-10-05T05:02:04.000Z,1011.49
2016-10-05T05:02:44.691Z,1011.47
2016-10-05T05:03:25.319Z,1011.49
2016-10-05T05:04:05.987Z,1011.46
2016-10-05T05:04:46.684Z,1011.47
2016-10-05T05:05:27.332Z,1011.48
2016-10-05T05:06:08.049Z,1011.47
2016-10-05T05:06:48.751Z,1011.45
2016-10-05T05:07:29.456Z,1011.47
2016-10-05T05:08:10.171Z,1011.45
2016-10-05T05:08:50.903Z,1011.45
2016-10-05T05:09:31.633Z,1011.46
2016-10-05T05:10:12.339Z,1011.48
2016-10-05T05:10:52.983Z,1011.48
2016-10-05T05:11:33.669Z,1011.43
2016-10-05T05:12:14.358Z,1011.45
2016-10-05T05:12:55.041Z,1011.45
2016-10-05T05:13:35.765Z,1011.39
2016-10-05T05:14:16.435Z,1011.43
2016-10-05T05:14:57.184Z,1011.42
2016-10-05T05:15:37.831Z,1011.45
2016-10-05T05:16:18.519Z,1011.43
2016-10-05T05:16:59.176Z,1011.4
2016-10-05T05:17:39.841Z,1011.39
2016-10-05T05:18:20.524Z,1011.42
2016-10-05T05:19:01.220Z,1011.42
2016-10-05T05:19:41.880Z,1011.41
2016-10-05T05:20:22.578Z,1011.43
2016-10-05T05:21:03.318Z,1011.45
2016-10-05T05:21:43.958Z,1011.43
2016-10-05T05:22:24.607Z,1011.42
2016-10-05T05:23:05.315Z,1011.46
2016-10-05T05:23:45.998Z,1011.47
2016-10-05T05:24:26.670Z,1011.46
2016-10-05T05:25:07.316Z,1011.46
2016-10-05T05:25:48.031Z,1011.47
2016-10-05T05:26:28.749Z,1011.46
2016-10-05T05:27:09.467Z,1011.48
2016-10-05T05:27:50.153Z,1011.46
2016-10-05T05:28:30.808Z,1011.45
2016-10-05T05:29:11.441Z,1011.47
2016-10-05T05:29:52.142Z,1011.49
2016-10-05T05:30:32.827Z,1011.48
2016-10-05T05:31:13.490Z,1011.45
2016-10-05T05:31:54.146Z,1011.45
2016-10-05T05:32:34.847Z,1011.47
2016-10-05T05:33:15.488Z,1011.48
2016-10-05T05:33:56.179Z,1011.45
2016-10-05T05:34:36.905Z,1011.46
2016-10-05T05:35:17.612Z,1011.46
2016-10-05T05:35:58.303Z,1011.47
2016-10-05T05:36:39.050Z,1011.46
2016-10-05T05:37:19.696Z,1011.43
2016-10-05T05:38:00.371Z,1011.43
2016-10-05T05:38:41.102Z,1011.46
2016-10-05T05:39:21.797Z,1011.45
2016-10-05T05:40:02.451Z,1011.46
2016-10-05T05:40:43.146Z,1011.49
2016-10-05T05:41:23.806Z,1011.45
2016-10-05T05:42:04.475Z,1011.42
2016-10-05T05:42:45.148Z,1011.42
2016-10-05T05:43:25.815Z,1011.44
2016-10-05T05:44:06.490Z,1011.41
2016-10-05T05:44:47.199Z,1011.42
2016-10-05T05:45:27.935Z,1011.38
2016-10-05T05:46:08.626Z,1011.36
2016-10-05T05:46:49.295Z,1011.38
2016-10-05T05:47:29.949Z,1011.35
2016-10-05T05:48:10.638Z,1011.37
2016-10-05T05:48:51.297Z,1011.33
2016-10-05T05:49:32.018Z,1011.31
2016-10-05T05:50:12.742Z,1011.33
2016-10-05T05:50:53.396Z,1011.33
2016-10-05T05:51:34.081Z,1011.29
2016-10-05T05:52:14.816Z,1011.29
2016-10-05T05:52:55.487Z,1011.29
2016-10-05T05:53:36.213Z,1011.25
2016-10-05T05:54:16.911Z,1011.28
2016-10-05T05:54:57.602Z,1011.28
2016-10-05T05:55:38.267Z,1011.27
2016-10-05T05:56:18.984Z,1011.26
2016-10-05T05:56:59.633Z,1011.25
2016-10-05T05:57:40.347Z,1011.26
2016-10-05T05:58:21.116Z,1011.29
2016-10-05T05:59:01.853Z,1011.27
2016-10-05T05:59:42.703Z,1011.27
2016-10-05T06:00:23.458Z,1011.26
2016-10-05T06:01:04.148Z,1011.25
2016-10-05T06:01:44.982Z,1011.23
2016-10-05T06:02:26.201Z,1011.26
2016-10-05T06:03:06.872Z,1011.25
2016-10-05T06:03:47.532Z,1011.26
2016-10-05T06:04:28.253Z,1011.28
2016-10-05T06:05:08.945Z,1011.26
2016-10-05T06:05:49.656Z,1011.24
2016-10-05T06:06:30.324Z,1011.27
2016-10-05T06:07:10.987Z,1011.26
2016-10-05T06:07:51.714Z,1011.26
2016-10-05T06:08:32.446Z,1011.27
2016-10-05T06:09:13.178Z,1011.25
2016-10-05T06:09:53.862Z,1011.24
2016-10-05T06:10:34.518Z,1011.26
2016-10-05T06:11:15.217Z,1011.25
2016-10-05T06:11:55.953Z,1011.27
2016-10-05T06:12:37.044Z,1011.27
2016-10-05T06:13:17.866Z,1011.26
2016-10-05T06:13:58.587Z,1011.25
2016-10-05T06:14:39.265Z,1011.26
2016-10-05T06:15:19.974Z,1011.24
2016-10-05T06:16:00.651Z,1011.25
2016-10-05T06:16:41.325Z,1011.21
2016-10-05T06:17:22.019Z,1011.27
2016-10-05T06:18:02.729Z,1011.23
2016-10-05T06:18:43.414Z,1011.23
2016-10-05T06:19:24.109Z,1011.17
2016-10-05T06:20:04.767Z,1011.25
2016-10-05T06:20:45.439Z,1011.26
2016-10-05T06:21:27.005Z,1011.23
2016-10-05T06:22:07.697Z,1011.25
2016-10-05T06:22:48.343Z,1011.26
2016-10-05T06:23:29.019Z,1011.22
2016-10-05T06:24:09.736Z,1011.21
2016-10-05T06:24:50.433Z,1011.23
2016-10-05T06:25:31.135Z,1011.24
2016-10-05T06:26:11.809Z,1011.25
2016-10-05T06:26:52.563Z,1011.24
2016-10-05T06:27:33.290Z,1011.26
2016-10-05T06:28:13.985Z,1011.25
2016-10-05T06:28:54.682Z,1011.28
2016-10-05T06:29:35.337Z,1011.33
2016-10-05T06:30:16.044Z,1011.28
2016-10-05T06:30:56.734Z,1011.3
2016-10-05T06:31:37.444Z,1011.34
2016-10-05T06:32:18.082Z,1011.37
2016-10-05T06:32:58.759Z,1011.36
2016-10-05T06:33:39.474Z,1011.37
2016-10-05T06:34:20.399Z,1011.37
2016-10-05T06:35:01.139Z,1011.4
2016-10-05T06:35:41.838Z,1011.38
2016-10-05T06:36:22.552Z,1011.41
2016-10-05T06:37:03.258Z,1011.37
2016-10-05T06:37:43.952Z,1011.38
2016-10-05T06:38:24.671Z,1011.38
2016-10-05T06:39:05.363Z,1011.43
2016-10-05T06:39:46.532Z,1011.41
2016-10-05T06:40:27.269Z,1011.41
2016-10-05T06:41:08.036Z,1011.43
2016-10-05T06:41:48.822Z,1011.43
2016-10-05T06:42:29.533Z,1011.47
2016-10-05T06:43:10.169Z,1011.45
2016-10-05T06:43:50.899Z,1011.45
2016-10-05T06:44:31.577Z,1011.44
2016-10-05T06:45:12.344Z,1011.41
2016-10-05T06:45:53.046Z,1011.42
2016-10-05T06:46:33.728Z,1011.45
2016-10-05T06:47:14.428Z,1011.43
2016-10-05T06:47:55.106Z,1011.46
2016-10-05T06:48:35.815Z,1011.43
2016-10-05T06:49:16.487Z,1011.42
2016-10-05T06:49:57.880Z,1011.44
2016-10-05T06:50:39.276Z,1011.43
2016-10-05T06:51:19.317Z,1011.43
2016-10-05T06:51:59.996Z,1011.46
2016-10-05T06:52:40.739Z,1011.44
2016-10-05T06:53:21.430Z,1011.43
2016-10-05T06:54:02.091Z,1011.42
2016-10-05T06:54:42.813Z,1011.4
2016-10-05T06:55:23.507Z,1011.43
2016-10-05T06:56:04.226Z,1011.43
2016-10-05T06:56:45.002Z,1011.45
2016-10-05T06:57:25.674Z,1011.45
2016-10-05T06:58:06.404Z,1011.45
2016-10-05T06:58:47.157Z,1011.47
2016-10-05T06:59:27.833Z,1011.45
2016-10-05T07:00:08.529Z,1011.47
2016-10-05T07:00:49.200Z,1011.45
2016-10-05T07:01:30.878Z,1011.45
2016-10-05T07:02:11.591Z,1011.49
2016-10-05T07:02:52.415Z,1011.51
2016-10-05T07:03:33.149Z,1011.49
2016-10-05T07:04:13.868Z,1011.52
2016-10-05T07:04:54.585Z,1011.52
2016-10-05T07:05:35.308Z,1011.53
2016-10-05T07:06:15.974Z,1011.51
2016-10-05T07:06:56.683Z,1011.49
2016-10-05T07:07:37.419Z,1011.53
2016-10-05T07:08:18.112Z,1011.51
2016-10-05T07:08:58.836Z,1011.54
2016-10-05T07:09:39.582Z,1011.53
2016-10-05T07:10:20.254Z,1011.53
2016-10-05T07:11:00.946Z,1011.53
2016-10-05T07:11:41.673Z,1011.51
2016-10-05T07:12:22.416Z,1011.52
2016-10-05T07:13:03.058Z,1011.5
2016-10-05T07:13:43.783Z,1011.5
2016-10-05T07:14:24.505Z,1011.49
2016-10-05T07:15:05.164Z,1011.49
2016-10-05T07:15:45.868Z,1011.48
2016-10-05T07:16:26.588Z,1011.54
2016-10-05T07:17:07.238Z,1011.54
2016-10-05T07:17:47.932Z,1011.52
2016-10-05T07:18:29.298Z,1011.48
2016-10-05T07:19:09.399Z,1011.49
2016-10-05T07:19:50.788Z,1011.51
2016-10-05T07:20:31.604Z,1011.53
2016-10-05T07:21:12.294Z,1011.51
2016-10-05T07:21:52.986Z,1011.53
2016-10-05T07:22:33.738Z,1011.55
2016-10-05T07:23:14.408Z,1011.55
2016-10-05T07:23:55.109Z,1011.54
2016-10-05T07:24:35.811Z,1011.55
2016-10-05T07:25:17.305Z,1011.56
2016-10-05T07:25:57.999Z,1011.59
2016-10-05T07:26:38.661Z,1011.62
2016-10-05T07:27:19.294Z,1011.64
2016-10-05T07:27:59.996Z,1011.63
2016-10-05T07:28:40.692Z,1011.59
2016-10-05T07:29:21.402Z,1011.57
2016-10-05T07:30:02.095Z,1011.65
2016-10-05T07:30:42.854Z,1011.63
2016-10-05T07:31:24.313Z,1011.63
2016-10-05T07:32:04.261Z,1011.63
2016-10-05T07:32:44.981Z,1011.63
2016-10-05T07:33:25.611Z,1011.65
2016-10-05T07:34:06.264Z,1011.64
2016-10-05T07:34:46.982Z,1011.67
2016-10-05T07:35:27.685Z,1011.62
2016-10-05T07:36:08.391Z,1011.63
2016-10-05T07:36:49.115Z,1011.62
2016-10-05T07:37:29.844Z,1011.64
2016-10-05T07:38:11.319Z,1011.66
2016-10-05T07:38:51.409Z,1011.65
2016-10-05T07:39:32.075Z,1011.66
2016-10-05T07:40:17.805Z,1011.69
2016-10-05T07:41:01.746Z,1011.72
2016-10-05T07:41:43.491Z,1011.72
2016-10-05T07:42:25.749Z,1011.73
2016-10-05T07:43:06.779Z,1011.73
2016-10-05T07:43:50.100Z,1011.72
2016-10-05T07:44:30.981Z,1011.71
2016-10-05T07:45:12.835Z,1011.74
2016-10-05T07:45:54.165Z,1011.74
2016-10-05T07:49:13.394Z,1011.77
2016-10-05T07:49:54.394Z,1011.76
2016-10-05T07:50:35.432Z,1011.79
2016-10-05T07:51:18.292Z,1011.76
2016-10-05T07:52:01.093Z,1011.8
2016-10-05T07:52:43.236Z,1011.76
2016-10-05T07:53:27.423Z,1011.75
2016-10-05T07:54:08.173Z,1011.77
2016-10-05T07:54:49.760Z,1011.76
2016-10-05T07:55:37.823Z,1011.73
2016-10-05T07:56:18.521Z,1011.75
2016-10-05T07:57:04.378Z,1011.74
2016-10-05T07:57:45.698Z,1011.75
2016-10-05T07:58:26.393Z,1011.74
2016-10-05T07:59:07.948Z,1011.72
2016-10-05T07:59:50.198Z,1011.77
2016-10-05T08:00:30.905Z,1011.76
2016-10-05T08:01:12.220Z,1011.77
2016-10-05T08:01:54.709Z,1011.75
2016-10-05T08:02:36.125Z,1011.76
2016-10-05T08:03:16.142Z,1011.79
2016-10-05T08:05:34.355Z,1011.86
2016-10-05T08:06:15.541Z,1011.81
2016-10-05T08:06:56.833Z,1011.85
2016-10-05T08:07:37.558Z,1011.81
2016-10-05T08:08:19.544Z,1011.83
2016-10-05T08:09:00.602Z,1011.81
2016-10-05T08:09:41.253Z,1011.79
2016-10-05T08:10:22.873Z,1011.79
2016-10-05T08:11:04.630Z,1011.76
2016-10-05T08:11:45.312Z,1011.79
2016-10-05T08:12:26.994Z,1011.75
2016-10-05T08:13:07.896Z,1011.78
2016-10-05T08:13:48.578Z,1011.74
2016-10-05T08:14:29.586Z,1011.76
2016-10-05T08:15:10.351Z,1011.76
2016-10-05T08:15:51.197Z,1011.73
2016-10-05T08:16:33.221Z,1011.72
2016-10-05T08:17:13.941Z,1011.75
2016-10-05T08:17:54.784Z,1011.74
2016-10-05T08:18:35.538Z,1011.76